Time;durP1;ratioP1;P1;durP2;ratioP2;P2;SDS_P1;SDS_P2;PMS_P1;PMS_P2;Temp;Humidity;BMP_temperature;BMP_pressure;BME280_temperature;BME280_humidity;BME280_pressure;Samples;Min_cycle;Max_cycle;Signal;HPM_P1;HPM_P2
2022/10/06 00:02:25;;;;;;;0.70;0.52;;;;;;;;;;4955677;28;20705;-74
2022/10/06 00:04:52;;;;;;;0.57;0.40;;;;;;;;;;4955414;28;20231;-75
2022/10/06 00:07:18;;;;;;;0.47;0.30;;;;;;;;;;4963095;28;20662;-75
2022/10/06 00:09:48;;;;;;;0.77;0.57;;;;;;;;;;4957995;28;20234;-75
2022/10/06 00:12:14;;;;;;;0.73;0.50;;;;;;;;;;4971050;28;20266;-75
2022/10/06 00:14:42;;;;;;;0.43;0.40;;;;;;;;;;4974981;28;20776;-76
2022/10/06 00:17:10;;;;;;;0.47;0.30;;;;;;;;;;4951123;28;20227;-77
2022/10/06 00:19:36;;;;;;;0.40;0.40;;;;;;;;;;4962091;28;20223;-76
2022/10/06 00:22:01;;;;;;;0.52;0.40;;;;;;;;;;4952275;28;20228;-77
2022/10/06 00:24:27;;;;;;;1.45;0.50;;;;;;;;;;4960858;28;20310;-76
2022/10/06 00:26:54;;;;;;;0.57;0.47;;;;;;;;;;4985829;28;20228;-76
2022/10/06 00:29:20;;;;;;;1.08;0.57;;;;;;;;;;4964686;28;20226;-77
2022/10/06 00:31:46;;;;;;;0.45;0.40;;;;;;;;;;4951114;28;20225;-76
2022/10/06 00:34:16;;;;;;;0.40;0.40;;;;;;;;;;4968254;28;20614;-75
2022/10/06 00:36:42;;;;;;;1.88;0.70;;;;;;;;;;4973232;28;20771;-75
2022/10/06 00:39:13;;;;;;;1.20;0.50;;;;;;;;;;4959999;28;20926;-75
2022/10/06 00:41:46;;;;;;;0.68;0.68;;;;;;;;;;4959751;28;20230;-74
2022/10/06 00:44:16;;;;;;;0.67;0.40;;;;;;;;;;4968253;28;20699;-76
2022/10/06 00:46:49;;;;;;;1.90;0.83;;;;;;;;;;4974961;28;20319;-76
2022/10/06 00:49:18;;;;;;;0.60;0.60;;;;;;;;;;4971248;28;20224;-76
2022/10/06 00:51:49;;;;;;;3.57;0.83;;;;;;;;;;4971742;28;20258;-77
2022/10/06 00:54:15;;;;;;;0.77;0.70;;;;;;;;;;4967476;28;20602;-75
2022/10/06 00:56:41;;;;;;;0.83;0.60;;;;;;;;;;4991831;28;20226;-77
2022/10/06 00:59:12;;;;;;;1.27;0.70;;;;;;;;;;4946255;28;20231;-77
2022/10/06 01:01:38;;;;;;;2.60;0.90;;;;;;;;;;4941945;28;20860;-76
2022/10/06 01:04:06;;;;;;;0.70;0.70;;;;;;;;;;4951029;28;20232;-77
2022/10/06 01:06:49;;;;;;;0.80;0.80;;;;;;;;;;4967307;28;20238;-76
2022/10/06 01:09:19;;;;;;;1.93;0.80;;;;;;;;;;4959266;28;20226;-76
2022/10/06 01:11:50;;;;;;;0.70;0.70;;;;;;;;;;4954574;28;20254;-76
2022/10/06 01:14:21;;;;;;;0.60;0.60;;;;;;;;;;4973928;28;20222;-76
2022/10/06 01:16:54;;;;;;;0.70;0.70;;;;;;;;;;4941639;28;20248;-77
2022/10/06 01:19:42;;;;;;;1.27;0.90;;;;;;;;;;4949109;28;20265;-76
2022/10/06 01:22:10;;;;;;;0.80;0.80;;;;;;;;;;4962214;28;20293;-76
2022/10/06 01:24:39;;;;;;;1.53;0.83;;;;;;;;;;4951592;28;20285;-76
2022/10/06 01:27:09;;;;;;;1.13;0.80;;;;;;;;;;4950260;28;20731;-75
2022/10/06 01:29:37;;;;;;;2.13;0.50;;;;;;;;;;4962116;28;20223;-76
2022/10/06 01:32:03;;;;;;;0.50;0.50;;;;;;;;;;4941857;28;20264;-76
2022/10/06 01:34:29;;;;;;;0.40;0.40;;;;;;;;;;4950330;28;20313;-76
2022/10/06 01:36:57;;;;;;;0.65;0.65;;;;;;;;;;4965358;28;20701;-75
2022/10/06 01:39:26;;;;;;;1.43;0.50;;;;;;;;;;4973021;28;20282;-76
2022/10/06 01:41:52;;;;;;;1.27;0.60;;;;;;;;;;4972934;28;20226;-75
2022/10/06 01:44:17;;;;;;;0.97;0.60;;;;;;;;;;4946680;28;20227;-76
2022/10/06 01:46:43;;;;;;;1.07;0.60;;;;;;;;;;4979697;28;20222;-77
2022/10/06 01:49:08;;;;;;;1.23;0.43;;;;;;;;;;4972575;28;20222;-76
2022/10/06 01:51:36;;;;;;;1.23;0.50;;;;;;;;;;4959602;28;20656;-76
2022/10/06 01:54:02;;;;;;;0.67;0.40;;;;;;;;;;4964432;28;20257;-76
2022/10/06 01:56:28;;;;;;;1.73;0.60;;;;;;;;;;4968653;28;20630;-76
2022/10/06 01:58:56;;;;;;;0.50;0.50;;;;;;;;;;4976504;28;20321;-76
2022/10/06 02:01:22;;;;;;;0.70;0.40;;;;;;;;;;4967488;28;20229;-75
2022/10/06 02:03:47;;;;;;;0.93;0.40;;;;;;;;;;4977345;28;20230;-76
2022/10/06 02:06:17;;;;;;;1.50;0.60;;;;;;;;;;4971065;28;20285;-75
2022/10/06 02:08:43;;;;;;;1.40;0.60;;;;;;;;;;4956187;28;20229;-75
2022/10/06 02:11:11;;;;;;;1.70;0.67;;;;;;;;;;4958453;28;20238;-75
2022/10/06 02:13:45;;;;;;;2.33;0.73;;;;;;;;;;4956094;28;20301;-75
2022/10/06 02:16:12;;;;;;;1.30;0.57;;;;;;;;;;4973490;28;20736;-74
2022/10/06 02:18:39;;;;;;;2.30;0.67;;;;;;;;;;4953107;28;20229;-74
2022/10/06 02:21:11;;;;;;;1.17;0.60;;;;;;;;;;4954323;28;20223;-75
2022/10/06 02:23:37;;;;;;;1.63;0.73;;;;;;;;;;4979077;28;20226;-75
2022/10/06 02:26:05;;;;;;;1.00;0.60;;;;;;;;;;4960705;28;20578;-75
2022/10/06 02:28:34;;;;;;;1.90;0.70;;;;;;;;;;4974765;28;20226;-75
2022/10/06 02:31:03;;;;;;;3.27;0.70;;;;;;;;;;4980422;28;20226;-74
2022/10/06 02:33:32;;;;;;;1.50;0.50;;;;;;;;;;4991212;28;20225;-76
2022/10/06 02:36:02;;;;;;;0.80;0.53;;;;;;;;;;4951612;28;20218;-76
2022/10/06 02:38:31;;;;;;;1.23;0.57;;;;;;;;;;4960498;28;20302;-75
2022/10/06 02:40:59;;;;;;;1.40;0.63;;;;;;;;;;4982744;28;20278;-77
2022/10/06 02:43:28;;;;;;;1.07;0.73;;;;;;;;;;4978631;28;20234;-75
2022/10/06 02:45:55;;;;;;;1.73;0.63;;;;;;;;;;4968484;28;20311;-75
2022/10/06 02:48:26;;;;;;;2.27;0.50;;;;;;;;;;4970854;28;20250;-76
2022/10/06 02:50:55;;;;;;;0.57;0.47;;;;;;;;;;4949059;28;20230;-76
2022/10/06 02:53:22;;;;;;;0.63;0.40;;;;;;;;;;4958669;28;20595;-75
2022/10/06 02:55:48;;;;;;;2.77;0.57;;;;;;;;;;4978044;28;20249;-76
2022/10/06 02:58:16;;;;;;;4.20;0.80;;;;;;;;;;4976660;28;20230;-75
2022/10/06 03:00:46;;;;;;;3.70;0.80;;;;;;;;;;4977179;28;20564;-75
2022/10/06 03:03:12;;;;;;;3.30;0.93;;;;;;;;;;4975458;28;20231;-75
2022/10/06 03:05:38;;;;;;;4.93;0.80;;;;;;;;;;4951092;28;20227;-75
2022/10/06 03:08:04;;;;;;;2.30;0.90;;;;;;;;;;4977715;28;20238;-75
2022/10/06 03:10:32;;;;;;;1.73;0.97;;;;;;;;;;4976523;28;20230;-76
2022/10/06 03:13:00;;;;;;;2.67;0.80;;;;;;;;;;4952618;28;20273;-74
2022/10/06 03:15:28;;;;;;;1.80;0.70;;;;;;;;;;4966485;28;20247;-76
2022/10/06 03:17:55;;;;;;;1.13;0.63;;;;;;;;;;4976581;28;20233;-75
2022/10/06 03:20:21;;;;;;;0.93;0.67;;;;;;;;;;4993246;28;20221;-76
2022/10/06 03:23:04;;;;;;;1.00;0.70;;;;;;;;;;4953004;28;20215;-76
2022/10/06 03:25:30;;;;;;;2.23;0.80;;;;;;;;;;4978581;28;20223;-75
2022/10/06 03:27:55;;;;;;;1.37;0.70;;;;;;;;;;4977214;28;20771;-75
2022/10/06 03:30:21;;;;;;;1.63;0.90;;;;;;;;;;4981804;28;20230;-76
2022/10/06 03:32:47;;;;;;;3.90;1.00;;;;;;;;;;4962259;28;20213;-76
2022/10/06 03:35:15;;;;;;;2.60;0.87;;;;;;;;;;4975578;28;20257;-76
2022/10/06 03:37:46;;;;;;;1.50;0.80;;;;;;;;;;4953617;28;20214;-73
2022/10/06 03:40:13;;;;;;;5.53;1.10;;;;;;;;;;4928292;28;20696;-73
2022/10/06 03:42:45;;;;;;;1.40;0.90;;;;;;;;;;4936067;28;20218;-76
2022/10/06 03:45:11;;;;;;;3.50;1.10;;;;;;;;;;4967512;28;20225;-76
2022/10/06 03:47:37;;;;;;;2.57;0.90;;;;;;;;;;4962806;28;20211;-75
2022/10/06 03:50:02;;;;;;;3.43;0.73;;;;;;;;;;4973883;28;20709;-75
2022/10/06 03:52:28;;;;;;;1.80;0.80;;;;;;;;;;4947097;28;20218;-75
2022/10/06 03:55:00;;;;;;;1.53;0.90;;;;;;;;;;4975854;28;20235;-75
2022/10/06 03:57:28;;;;;;;3.53;0.80;;;;;;;;;;4955576;28;20222;-75
2022/10/06 03:59:58;;;;;;;1.00;0.70;;;;;;;;;;4978690;28;20659;-77
2022/10/06 04:02:26;;;;;;;7.17;1.10;;;;;;;;;;4959737;28;20238;-76
2022/10/06 04:04:52;;;;;;;2.23;1.07;;;;;;;;;;4952842;28;20226;-75
2022/10/06 04:07:17;;;;;;;2.17;1.00;;;;;;;;;;4986080;28;20223;-76
2022/10/06 04:09:49;;;;;;;1.40;0.83;;;;;;;;;;4993939;28;20222;-76
2022/10/06 04:12:16;;;;;;;2.90;1.30;;;;;;;;;;4977285;28;20249;-76
2022/10/06 04:14:44;;;;;;;3.77;1.60;;;;;;;;;;4945947;28;20689;-76
2022/10/06 04:17:10;;;;;;;5.50;1.60;;;;;;;;;;4960389;28;20290;-76
2022/10/06 04:19:38;;;;;;;4.37;1.53;;;;;;;;;;4968228;28;20233;-75
2022/10/06 04:22:03;;;;;;;2.00;1.00;;;;;;;;;;4949737;28;20222;-76
2022/10/06 04:24:34;;;;;;;1.33;0.97;;;;;;;;;;4965923;28;20218;-76
2022/10/06 04:30:14;;;;;;;2.47;1.17;;;;;;;;;;4957524;28;20231;-75
2022/10/06 04:32:40;;;;;;;3.77;0.83;;;;;;;;;;4986283;28;20322;-77
2022/10/06 04:35:06;;;;;;;2.37;0.90;;;;;;;;;;4945709;28;20799;-76
2022/10/06 04:37:31;;;;;;;2.30;0.90;;;;;;;;;;4957069;28;20572;-76
2022/10/06 04:39:58;;;;;;;1.77;0.90;;;;;;;;;;4978062;28;20230;-76
2022/10/06 04:42:24;;;;;;;3.23;1.13;;;;;;;;;;4977343;28;20291;-76
2022/10/06 04:44:49;;;;;;;4.10;0.90;;;;;;;;;;4974042;28;20796;-76
2022/10/06 04:47:17;;;;;;;3.07;1.07;;;;;;;;;;4959026;28;20218;-76
2022/10/06 04:49:43;;;;;;;3.67;1.47;;;;;;;;;;4946500;28;20222;-75
2022/10/06 04:52:11;;;;;;;2.37;1.10;;;;;;;;;;4950351;28;20234;-76
2022/10/06 04:54:39;;;;;;;2.53;1.07;;;;;;;;;;4987592;28;20310;-76
2022/10/06 04:57:06;;;;;;;4.10;1.10;;;;;;;;;;4971958;28;20779;-74
2022/10/06 05:02:21;;;;;;;3.97;1.10;;;;;;;;;;4964281;28;20229;-75
2022/10/06 05:04:51;;;;;;;3.77;1.27;;;;;;;;;;4992359;28;20767;-73
2022/10/06 05:07:19;;;;;;;3.70;1.30;;;;;;;;;;4975963;28;20856;-74
2022/10/06 05:09:45;;;;;;;4.30;1.40;;;;;;;;;;4972670;28;20709;-75
2022/10/06 05:12:11;;;;;;;2.90;1.10;;;;;;;;;;4966835;28;20234;-75
2022/10/06 05:14:40;;;;;;;4.93;1.20;;;;;;;;;;4959191;28;20229;-75
2022/10/06 05:17:06;;;;;;;2.90;1.07;;;;;;;;;;4974818;28;20787;-76
2022/10/06 05:19:34;;;;;;;3.90;1.20;;;;;;;;;;4976938;28;20222;-75
2022/10/06 05:22:00;;;;;;;4.23;1.30;;;;;;;;;;4991689;28;20226;-74
2022/10/06 05:24:31;;;;;;;4.87;1.40;;;;;;;;;;4995533;28;20223;-75
2022/10/06 05:27:02;;;;;;;3.10;1.40;;;;;;;;;;4959877;28;20241;-73
2022/10/06 05:29:32;;;;;;;5.87;1.40;;;;;;;;;;4951998;28;20302;-74
2022/10/06 05:32:00;;;;;;;4.50;1.60;;;;;;;;;;4951254;28;20227;-76
2022/10/06 05:34:30;;;;;;;4.27;1.40;;;;;;;;;;4935674;28;20221;-76
2022/10/06 05:36:55;;;;;;;3.00;1.17;;;;;;;;;;4980479;28;20336;-75
2022/10/06 05:39:21;;;;;;;4.53;1.30;;;;;;;;;;4968625;28;20214;-76
2022/10/06 05:41:59;;;;;;;3.03;1.20;;;;;;;;;;4962296;28;20227;-75
2022/10/06 05:44:25;;;;;;;4.73;1.60;;;;;;;;;;4989152;28;20305;-74
2022/10/06 05:46:54;;;;;;;3.33;1.30;;;;;;;;;;4973592;28;20226;-73
2022/10/06 05:49:22;;;;;;;3.93;1.40;;;;;;;;;;4959209;28;20227;-74
2022/10/06 05:51:55;;;;;;;4.93;1.43;;;;;;;;;;4999049;28;20281;-76
2022/10/06 05:54:29;;;;;;;3.87;1.50;;;;;;;;;;4946654;28;20214;-73
2022/10/06 05:56:58;;;;;;;6.37;1.50;;;;;;;;;;4982509;28;20235;-74
2022/10/06 05:59:26;;;;;;;7.03;1.87;;;;;;;;;;4982326;28;20221;-75
2022/10/06 06:01:53;;;;;;;4.67;1.43;;;;;;;;;;4968399;28;20250;-75
2022/10/06 06:04:45;;;;;;;3.30;1.43;;;;;;;;;;4962131;28;20218;-75
2022/10/06 06:07:13;;;;;;;4.97;1.80;;;;;;;;;;4977148;28;20231;-75
2022/10/06 06:09:41;;;;;;;4.53;1.60;;;;;;;;;;4970789;28;20317;-74
2022/10/06 06:12:07;;;;;;;5.50;1.60;;;;;;;;;;4970891;28;20242;-74
2022/10/06 06:17:44;;;;;;;4.47;1.67;;;;;;;;;;4995616;28;20256;-75
2022/10/06 06:20:16;;;;;;;7.00;1.60;;;;;;;;;;4972623;28;20226;-74
2022/10/06 06:22:44;;;;;;;4.13;1.50;;;;;;;;;;4964806;28;20223;-75
2022/10/06 06:25:12;;;;;;;4.60;1.50;;;;;;;;;;4970517;28;20260;-74
2022/10/06 06:27:39;;;;;;;4.20;1.70;;;;;;;;;;4974734;28;20249;-75
2022/10/06 06:30:07;;;;;;;4.10;1.97;;;;;;;;;;4976457;28;20393;-76
2022/10/06 06:32:33;;;;;;;3.53;1.33;;;;;;;;;;4984004;28;20305;-76
2022/10/06 06:34:59;;;;;;;3.73;1.47;;;;;;;;;;4963910;28;20275;-75
2022/10/06 06:37:30;;;;;;;7.30;1.83;;;;;;;;;;4965738;28;20222;-76
2022/10/06 06:39:56;;;;;;;4.83;1.73;;;;;;;;;;4965086;28;20701;-76
2022/10/06 06:42:22;;;;;;;5.13;1.30;;;;;;;;;;4983594;28;20220;-75
2022/10/06 06:44:47;;;;;;;6.20;1.43;;;;;;;;;;4984559;28;20457;-76
2022/10/06 06:47:25;;;;;;;5.27;1.80;;;;;;;;;;4978187;28;20321;-74
2022/10/06 06:49:54;;;;;;;7.70;1.80;;;;;;;;;;4955442;28;20222;-73
2022/10/06 06:52:24;;;;;;;5.63;1.57;;;;;;;;;;4956895;28;20230;-76
2022/10/06 06:54:50;;;;;;;6.77;1.50;;;;;;;;;;4954968;28;20235;-75
2022/10/06 06:57:17;;;;;;;5.93;1.73;;;;;;;;;;4954344;28;20218;-75
2022/10/06 06:59:44;;;;;;;3.40;1.20;;;;;;;;;;4965235;28;20716;-75
2022/10/06 07:02:12;;;;;;;5.67;1.90;;;;;;;;;;4956169;28;20629;-75
2022/10/06 07:04:42;;;;;;;5.07;1.47;;;;;;;;;;4962360;28;20238;-73
2022/10/06 07:07:10;;;;;;;8.47;2.13;;;;;;;;;;4962944;28;20234;-75
2022/10/06 07:09:38;;;;;;;4.77;1.80;;;;;;;;;;4954030;28;20215;-71
2022/10/06 07:12:10;;;;;;;5.40;1.43;;;;;;;;;;4979249;28;20253;-73
2022/10/06 07:25:05;;;;;;;5.93;1.70;;;;;;;;;;4979733;28;20273;-75
2022/10/06 07:25:55;;;;;;;3.83;1.70;;;;;;;;;;4969942;28;20847;-73
2022/10/06 07:28:22;;;;;;;3.97;1.50;;;;;;;;;;4967609;28;20253;-75
2022/10/06 07:30:47;;;;;;;5.17;1.70;;;;;;;;;;4971707;28;20227;-77
2022/10/06 07:33:18;;;;;;;3.00;1.30;;;;;;;;;;4953276;28;20227;-74
2022/10/06 07:35:44;;;;;;;5.17;1.70;;;;;;;;;;4955215;28;20719;-74
2022/10/06 07:38:11;;;;;;;7.20;1.67;;;;;;;;;;4964398;28;20223;-74
2022/10/06 07:40:53;;;;;;;4.30;1.60;;;;;;;;;;4994461;28;20259;-75
2022/10/06 07:43:19;;;;;;;5.30;1.77;;;;;;;;;;4970127;28;20222;-75
2022/10/06 07:45:48;;;;;;;5.30;1.33;;;;;;;;;;4969353;28;20578;-74
2022/10/06 07:48:27;;;;;;;2.57;1.40;;;;;;;;;;4962002;28;20231;-75
2022/10/06 07:50:56;;;;;;;10.07;1.73;;;;;;;;;;4963724;28;20231;-75
2022/10/06 07:53:36;;;;;;;4.60;1.40;;;;;;;;;;4973192;28;20226;-74
2022/10/06 07:56:14;;;;;;;4.20;1.63;;;;;;;;;;4943603;28;20313;-75
2022/10/06 07:58:46;;;;;;;4.67;1.33;;;;;;;;;;4972702;28;20361;-75
2022/10/06 08:01:14;;;;;;;4.37;1.57;;;;;;;;;;4961418;28;20210;-74
2022/10/06 08:03:41;;;;;;;5.00;1.67;;;;;;;;;;4953521;28;20326;-73
2022/10/06 08:06:11;;;;;;;15.10;1.83;;;;;;;;;;4952723;28;20616;-74
2022/10/06 08:08:39;;;;;;;7.23;1.53;;;;;;;;;;4956896;28;20226;-75
2022/10/06 08:11:05;;;;;;;6.27;1.70;;;;;;;;;;4960749;28;20242;-74
2022/10/06 08:13:33;;;;;;;6.53;1.60;;;;;;;;;;4951692;28;20279;-74
2022/10/06 08:16:16;;;;;;;4.90;1.80;;;;;;;;;;4952493;28;20238;-74
2022/10/06 08:18:42;;;;;;;5.97;1.80;;;;;;;;;;4974312;28;20230;-75
2022/10/06 08:21:16;;;;;;;4.20;1.75;;;;;;;;;;4962078;28;20273;-74
2022/10/06 08:23:45;;;;;;;4.53;1.80;;;;;;;;;;4972252;28;20775;-74
2022/10/06 08:26:11;;;;;;;4.97;1.80;;;;;;;;;;4971809;28;20237;-75
2022/10/06 08:28:37;;;;;;;6.80;1.63;;;;;;;;;;4994531;28;20720;-75
2022/10/06 08:31:04;;;;;;;4.37;1.33;;;;;;;;;;4946714;28;20226;-75
2022/10/06 08:33:30;;;;;;;5.63;1.73;;;;;;;;;;4955341;28;20226;-73
2022/10/06 08:36:03;;;;;;;7.18;1.70;;;;;;;;;;4962904;28;20332;-75
2022/10/06 08:38:37;;;;;;;6.67;1.83;;;;;;;;;;4965702;28;20223;-74
2022/10/06 08:41:42;;;;;;;4.33;1.83;;;;;;;;;;4987686;28;20273;-75
2022/10/06 08:44:22;;;;;;;6.17;1.67;;;;;;;;;;4962182;28;20230;-75
2022/10/06 08:47:00;;;;;;;8.10;1.90;;;;;;;;;;4974893;28;20230;-74
2022/10/06 08:49:32;;;;;;;6.35;1.63;;;;;;;;;;4974383;28;20218;-75
2022/10/06 08:52:01;;;;;;;3.60;1.40;;;;;;;;;;4988208;28;20257;-76
2022/10/06 08:54:39;;;;;;;5.07;1.67;;;;;;;;;;4976149;28;20218;-74
2022/10/06 08:57:20;;;;;;;5.83;1.40;;;;;;;;;;4944286;28;20222;-75
2022/10/06 08:59:52;;;;;;;7.32;1.90;;;;;;;;;;4990229;28;20657;-75
2022/10/06 09:02:27;;;;;;;3.47;1.40;;;;;;;;;;4966587;28;20606;-75
2022/10/06 09:04:55;;;;;;;3.83;1.47;;;;;;;;;;4974923;28;20264;-76
2022/10/06 09:07:33;;;;;;;3.97;1.60;;;;;;;;;;4980060;28;20723;-75
2022/10/06 09:10:05;;;;;;;8.20;1.57;;;;;;;;;;4966224;28;20226;-76
2022/10/06 09:12:42;;;;;;;4.43;1.43;;;;;;;;;;4981399;28;20312;-75
2022/10/06 09:15:13;;;;;;;5.07;1.73;;;;;;;;;;4959552;28;21025;-75
2022/10/06 09:17:45;;;;;;;3.67;1.50;;;;;;;;;;4957172;28;20285;-76
2022/10/06 09:20:19;;;;;;;5.20;1.75;;;;;;;;;;4961425;28;20219;-74
2022/10/06 09:22:48;;;;;;;5.33;1.57;;;;;;;;;;4957405;28;20218;-75
2022/10/06 09:25:26;;;;;;;5.00;1.58;;;;;;;;;;4950763;28;20234;-75
2022/10/06 09:27:55;;;;;;;4.97;1.60;;;;;;;;;;4940322;28;20340;-75
2022/10/06 09:30:21;;;;;;;4.47;1.55;;;;;;;;;;4961998;28;20574;-75
2022/10/06 09:32:50;;;;;;;4.30;1.40;;;;;;;;;;4951245;28;20234;-75
2022/10/06 09:35:20;;;;;;;5.97;1.63;;;;;;;;;;4960977;28;20242;-76
2022/10/06 09:38:06;;;;;;;5.05;1.45;;;;;;;;;;4966455;28;20234;-75
2022/10/06 09:40:40;;;;;;;3.78;1.70;;;;;;;;;;4937465;28;20226;-75
2022/10/06 09:43:30;;;;;;;4.97;1.65;;;;;;;;;;4948561;28;20299;-74
2022/10/06 09:46:32;;;;;;;4.97;1.83;;;;;;;;;;4991352;28;20230;-73
2022/10/06 09:49:17;;;;;;;3.63;1.33;;;;;;;;;;4961061;28;20944;-75
2022/10/06 09:52:03;;;;;;;4.65;1.73;;;;;;;;;;4961992;28;20266;-76
2022/10/06 09:54:36;;;;;;;7.60;1.70;;;;;;;;;;4972584;28;20222;-75
2022/10/06 09:57:19;;;;;;;6.18;1.55;;;;;;;;;;4963617;28;20222;-74
2022/10/06 09:59:45;;;;;;;7.68;1.85;;;;;;;;;;4966443;28;20214;-75
2022/10/06 10:02:37;;;;;;;6.00;1.83;;;;;;;;;;4958975;28;20684;-74
2022/10/06 10:05:18;;;;;;;4.75;1.42;;;;;;;;;;4961114;28;20242;-75
2022/10/06 10:08:17;;;;;;;3.73;1.60;;;;;;;;;;4966469;28;20219;-75
2022/10/06 10:10:43;;;;;;;5.67;2.07;;;;;;;;;;4983676;28;20234;-75
2022/10/06 10:13:23;;;;;;;4.07;1.65;;;;;;;;;;4949552;28;20218;-73
2022/10/06 10:16:00;;;;;;;4.20;1.58;;;;;;;;;;4966440;28;20242;-75
2022/10/06 10:18:30;;;;;;;3.40;1.45;;;;;;;;;;4982496;28;20609;-74
2022/10/06 10:21:03;;;;;;;9.15;1.55;;;;;;;;;;4944696;28;20577;-76
2022/10/06 10:23:34;;;;;;;6.28;1.65;;;;;;;;;;4977397;28;20227;-74
2022/10/06 10:26:35;;;;;;;4.68;1.65;;;;;;;;;;4991554;28;20227;-73
2022/10/06 10:29:42;;;;;;;3.22;1.48;;;;;;;;;;4980257;28;20649;-76
2022/10/06 10:32:14;;;;;;;4.20;1.40;;;;;;;;;;4924415;29;20251;-72
2022/10/06 10:35:15;;;;;;;5.50;1.75;;;;;;;;;;4928164;29;20844;-75
2022/10/06 10:37:59;;;;;;;5.35;1.50;;;;;;;;;;4941098;28;20226;-75
2022/10/06 10:40:47;;;;;;;2.25;1.15;;;;;;;;;;4969391;28;20592;-75
2022/10/06 10:43:34;;;;;;;4.63;1.50;;;;;;;;;;5000462;28;20224;-73
2022/10/06 10:46:04;;;;;;;4.47;1.60;;;;;;;;;;4980678;28;20280;-74
2022/10/06 10:48:33;;;;;;;2.72;1.42;;;;;;;;;;4992865;28;20281;-75
2022/10/06 10:51:06;;;;;;;3.67;1.40;;;;;;;;;;4971951;28;20234;-74
2022/10/06 10:53:56;;;;;;;3.85;1.35;;;;;;;;;;4952702;28;20218;-76
2022/10/06 10:56:25;;;;;;;2.85;1.38;;;;;;;;;;4974717;28;20234;-76
2022/10/06 10:59:19;;;;;;;4.70;1.42;;;;;;;;;;4962796;28;20373;-75
2022/10/06 11:02:03;;;;;;;2.47;1.40;;;;;;;;;;4956244;28;20225;-75
2022/10/06 11:04:29;;;;;;;4.70;1.20;;;;;;;;;;4996724;28;20233;-75
2022/10/06 11:06:57;;;;;;;2.92;1.17;;;;;;;;;;4950352;28;20321;-75
2022/10/06 11:10:09;;;;;;;2.88;1.10;;;;;;;;;;4970069;28;20230;-75
2022/10/06 11:12:49;;;;;;;5.75;1.25;;;;;;;;;;4960970;28;20226;-75
2022/10/06 11:15:40;;;;;;;8.25;1.55;;;;;;;;;;4977771;28;20254;-76
2022/10/06 11:18:27;;;;;;;3.85;1.48;;;;;;;;;;4990954;28;20282;-74
2022/10/06 11:21:02;;;;;;;3.97;1.23;;;;;;;;;;4958294;28;20233;-76
2022/10/06 11:23:50;;;;;;;4.72;1.33;;;;;;;;;;4967956;28;20222;-75
2022/10/06 11:26:37;;;;;;;4.65;1.60;;;;;;;;;;4992276;28;20253;-74
2022/10/06 11:29:03;;;;;;;4.43;1.52;;;;;;;;;;4962854;28;20779;-74
2022/10/06 11:31:55;;;;;;;4.70;1.73;;;;;;;;;;4980376;28;20309;-75
2022/10/06 11:34:20;;;;;;;8.02;1.50;;;;;;;;;;4958323;28;20234;-73
2022/10/06 11:36:53;;;;;;;4.70;1.63;;;;;;;;;;4958432;28;20236;-74
2022/10/06 11:39:20;;;;;;;4.68;1.63;;;;;;;;;;4957886;28;20226;-74
2022/10/06 11:41:57;;;;;;;5.43;1.35;;;;;;;;;;4964041;28;20249;-74
2022/10/06 11:44:33;;;;;;;8.70;2.13;;;;;;;;;;4960876;28;20236;-74
2022/10/06 11:47:05;;;;;;;4.88;1.85;;;;;;;;;;4990158;28;20289;-76
2022/10/06 11:49:31;;;;;;;6.75;4.82;;;;;;;;;;4971430;28;20218;-75
2022/10/06 11:52:05;;;;;;;7.18;3.88;;;;;;;;;;4973386;28;20317;-75
2022/10/06 11:54:45;;;;;;;3.47;2.05;;;;;;;;;;4963206;28;20222;-75
2022/10/06 11:57:22;;;;;;;2.42;1.15;;;;;;;;;;4963185;28;20257;-75
2022/10/06 11:59:51;;;;;;;2.53;1.25;;;;;;;;;;4963310;28;20245;-76
2022/10/06 12:02:37;;;;;;;3.00;1.30;;;;;;;;;;4964831;28;20309;-76
2022/10/06 12:05:15;;;;;;;3.20;1.40;;;;;;;;;;4987941;28;20234;-74
2022/10/06 12:07:52;;;;;;;2.53;1.27;;;;;;;;;;4979224;28;20230;-75
2022/10/06 12:10:28;;;;;;;4.70;1.50;;;;;;;;;;4973889;28;20313;-77
2022/10/06 12:12:56;;;;;;;3.53;1.40;;;;;;;;;;4974269;28;20237;-75
2022/10/06 12:15:26;;;;;;;5.18;1.63;;;;;;;;;;4976070;28;20229;-75
2022/10/06 12:18:39;;;;;;;3.45;1.38;;;;;;;;;;4975708;28;20262;-75
2022/10/06 12:21:42;;;;;;;4.18;1.20;;;;;;;;;;4982564;28;20281;-75
2022/10/06 12:24:26;;;;;;;2.90;1.30;;;;;;;;;;4966374;28;20601;-75
2022/10/06 12:27:05;;;;;;;2.90;1.40;;;;;;;;;;4970256;28;20246;-74
2022/10/06 12:29:38;;;;;;;6.55;1.60;;;;;;;;;;4973939;28;20230;-75
2022/10/06 12:33:04;;;;;;;3.60;1.73;;;;;;;;;;4975907;28;20238;-75
2022/10/06 12:35:30;;;;;;;3.90;1.40;;;;;;;;;;4950130;28;20240;-75
2022/10/06 12:38:03;;;;;;;3.40;1.73;;;;;;;;;;4945152;28;20223;-76
2022/10/06 12:40:41;;;;;;;3.22;1.30;;;;;;;;;;4952030;28;20254;-75
2022/10/06 12:43:19;;;;;;;3.75;1.30;;;;;;;;;;4972783;28;20228;-75
2022/10/06 12:46:15;;;;;;;3.90;1.80;;;;;;;;;;4960920;28;20350;-75
2022/10/06 12:48:40;;;;;;;3.45;1.50;;;;;;;;;;4969388;28;20250;-75
2022/10/06 12:51:11;;;;;;;3.05;1.10;;;;;;;;;;4970705;28;20257;-75
2022/10/06 12:53:44;;;;;;;3.88;1.27;;;;;;;;;;4980286;28;20247;-74
2022/10/06 12:56:22;;;;;;;5.53;1.20;;;;;;;;;;4975966;28;20238;-75
2022/10/06 12:58:48;;;;;;;4.53;1.23;;;;;;;;;;4950926;28;20279;-76
2022/10/06 13:01:13;;;;;;;3.97;1.25;;;;;;;;;;4957206;28;20207;-74
2022/10/06 13:03:39;;;;;;;5.20;1.23;;;;;;;;;;4951743;28;20258;-75
2022/10/06 13:06:07;;;;;;;3.80;1.30;;;;;;;;;;4957820;28;20238;-75
2022/10/06 13:08:34;;;;;;;2.22;1.02;;;;;;;;;;4976742;28;20712;-74
2022/10/06 13:11:20;;;;;;;6.20;1.65;;;;;;;;;;4950657;28;20249;-73
2022/10/06 13:13:53;;;;;;;1.77;1.20;;;;;;;;;;4974265;28;20244;-78
2022/10/06 13:16:21;;;;;;;3.17;1.20;;;;;;;;;;4982105;28;20608;-76
2022/10/06 13:18:52;;;;;;;2.47;1.17;;;;;;;;;;4943711;28;20222;-74
2022/10/06 13:21:18;;;;;;;8.25;1.67;;;;;;;;;;4965680;28;20215;-73
2022/10/06 13:23:46;;;;;;;3.80;0.98;;;;;;;;;;4928808;28;20218;-74
2022/10/06 13:26:20;;;;;;;3.45;1.10;;;;;;;;;;4958808;28;20311;-77
2022/10/06 13:28:53;;;;;;;3.08;1.20;;;;;;;;;;4990685;28;20222;-76
2022/10/06 13:31:29;;;;;;;3.00;1.13;;;;;;;;;;4980959;28;20258;-76
2022/10/06 13:34:03;;;;;;;3.22;1.10;;;;;;;;;;4975110;28;20273;-73
2022/10/06 13:36:32;;;;;;;2.72;1.13;;;;;;;;;;4959955;28;20226;-74
2022/10/06 13:38:57;;;;;;;4.00;1.15;;;;;;;;;;4965232;28;20229;-77
2022/10/06 13:41:23;;;;;;;3.67;1.20;;;;;;;;;;4960179;28;20241;-76
2022/10/06 13:43:55;;;;;;;3.38;1.20;;;;;;;;;;4975787;28;20222;-76
2022/10/06 13:46:24;;;;;;;2.33;1.05;;;;;;;;;;4971772;28;20261;-78
2022/10/06 13:49:04;;;;;;;2.58;0.98;;;;;;;;;;4962313;28;20277;-76
2022/10/06 13:51:31;;;;;;;4.35;1.10;;;;;;;;;;4989577;28;20652;-75
2022/10/06 13:53:59;;;;;;;2.28;1.05;;;;;;;;;;4949191;28;20281;-74
2022/10/06 13:56:45;;;;;;;4.40;1.67;;;;;;;;;;4959123;28;20242;-75
2022/10/06 13:59:33;;;;;;;3.80;1.52;;;;;;;;;;4997398;28;20715;-75
2022/10/06 14:02:21;;;;;;;3.97;1.30;;;;;;;;;;4998787;28;20230;-74
2022/10/06 14:05:28;;;;;;;1.77;1.05;;;;;;;;;;4964148;28;20680;-75
2022/10/06 14:07:56;;;;;;;3.65;1.25;;;;;;;;;;4963610;28;20221;-77
2022/10/06 14:10:29;;;;;;;5.88;1.65;;;;;;;;;;4976974;28;20226;-76
2022/10/06 14:12:58;;;;;;;3.05;1.08;;;;;;;;;;4962204;28;20348;-75
2022/10/06 14:15:24;;;;;;;2.30;1.10;;;;;;;;;;4962356;28;20289;-77
2022/10/06 14:17:59;;;;;;;3.03;1.00;;;;;;;;;;4934344;28;20218;-78
2022/10/06 14:20:44;;;;;;;2.72;1.20;;;;;;;;;;4962668;28;20218;-75
2022/10/06 14:23:32;;;;;;;8.07;1.30;;;;;;;;;;4992128;28;20226;-78
2022/10/06 14:26:00;;;;;;;2.17;0.98;;;;;;;;;;4967769;28;20812;-76
2022/10/06 14:28:26;;;;;;;2.25;1.00;;;;;;;;;;4967016;28;20227;-75
2022/10/06 14:30:55;;;;;;;4.88;1.27;;;;;;;;;;4968719;28;20230;-75
2022/10/06 14:33:20;;;;;;;2.15;1.10;;;;;;;;;;4968517;28;20614;-77
2022/10/06 14:35:49;;;;;;;3.88;1.13;;;;;;;;;;4975951;28;20233;-76
2022/10/06 14:38:15;;;;;;;2.85;1.20;;;;;;;;;;4978346;28;20236;-77
2022/10/06 14:40:41;;;;;;;2.47;1.10;;;;;;;;;;4953233;28;20301;-76
2022/10/06 14:43:06;;;;;;;2.75;1.08;;;;;;;;;;4952677;28;20276;-77
2022/10/06 14:45:41;;;;;;;3.88;1.02;;;;;;;;;;4963821;28;20222;-77
2022/10/06 14:48:07;;;;;;;4.07;1.25;;;;;;;;;;4965543;28;20295;-76
2022/10/06 14:50:33;;;;;;;5.35;1.58;;;;;;;;;;4967603;28;20226;-76
2022/10/06 14:52:58;;;;;;;6.50;1.30;;;;;;;;;;4954583;28;20222;-76
2022/10/06 14:55:30;;;;;;;4.43;1.40;;;;;;;;;;4976303;28;20250;-76
2022/10/06 14:57:56;;;;;;;2.90;1.25;;;;;;;;;;4970058;28;20372;-77
2022/10/06 15:00:23;;;;;;;3.60;1.40;;;;;;;;;;4946491;28;20215;-75
2022/10/06 15:02:54;;;;;;;5.18;1.40;;;;;;;;;;4991659;28;20268;-76
2022/10/06 15:05:20;;;;;;;3.50;1.15;;;;;;;;;;4968544;28;20218;-74
2022/10/06 15:08:09;;;;;;;4.93;1.20;;;;;;;;;;4959563;28;20214;-76
2022/10/06 15:10:39;;;;;;;2.72;1.20;;;;;;;;;;4959288;28;20233;-77
2022/10/06 15:13:07;;;;;;;3.58;1.30;;;;;;;;;;4968368;28;20241;-76
2022/10/06 15:15:33;;;;;;;2.70;1.33;;;;;;;;;;4938296;28;20229;-77
2022/10/06 15:18:00;;;;;;;2.55;1.17;;;;;;;;;;4966410;28;20226;-75
2022/10/06 15:20:26;;;;;;;4.47;1.58;;;;;;;;;;4960914;28;20221;-75
2022/10/06 15:22:52;;;;;;;2.53;1.17;;;;;;;;;;4953728;28;20234;-77
2022/10/06 15:30:48;;;;;;;1.80;1.10;;;;;;;;;;4986363;28;20218;-77
2022/10/06 15:33:16;;;;;;;4.78;1.15;;;;;;;;;;4963434;28;20693;-77
2022/10/06 15:35:47;;;;;;;3.97;1.30;;;;;;;;;;4985952;28;20731;-77